Aérodrome :
LOGIN :

S'inscrire | Disclaimer

   EN    FR    IT 

 










Légende :    VFR   VFR Marginal   IFR   IFR Intensif   IFR Très Intensif
Visi : 
Plafond : 
>= 8 km
>= 3000ft
5 à 8 km
1000 à 3000 ft
1500m à 5 km
500 à 1000 ft
800 à 1500m
200 à 500 ft
< 800m
< 200 ft
Symboles :   Orages  Brouillard  Fortes neiges  Fortes précipitations  Vent > 20 kt
SIGMETs :   Divers  Orages  Givrage  Turbulence  Onde Orograph.  Cendres Volcan.







- Altitude de l'aérodrome : 235 ft
- Code IATA : BZG


EPBY - Bydgoszcz

DERNIER METAR :
  • 222330Z 10004KT 2700 BR NSC M09/M10 Q1011

METARs EXPIRÉS :
  • 222300Z 11004KT 3100 BR NSC M09/M11 Q1011
  • 222230Z 10003KT 2800 BR FEW002 M09/M11 Q1011
  • 222200Z 10003KT 3700 BR NSC M09/M11 Q1011
  • 222130Z 10002KT 2700 BR NSC M09/M10 Q1012
  • 222100Z 11005KT 3300 BR NSC M08/M09 Q1012

TAF TAF EPBY
Valide du 23 à 00h jusqu'au 24 à 00h UTC


222330Z 2300/2324 10005KT 3000 BR NSC
PROB40
TEMPO 2300/2308 1500 BR BKN003
BECMG 2308/2311 CAVOK
BECMG 2318/2321 BKN014
Pas de NOTAMs connus pour ce terrain.



MET'MAP, la Météo Aéronautique d'un coup d'oeil ! - Copyright ORBIFLY Décembre 2007 - Disclaimer

ORBIFLY MET'MAP TEAM :

Programmation & Développement : Alexandra Zaïnal
Conception & Développement : Baudouin d'Aumeries
Co-Programmation & Développement : Marc-Olivier Méhu
Soutien technique & logistique : Manuel Goepfert

Contact : metmap@orbifly.com




SOURCES & CREDITS :

   NOAA